Time;durP1;ratioP1;P1;durP2;ratioP2;P2;SDS_P1;SDS_P2;PMS_P1;PMS_P2;Temp;Humidity;BMP_temperature;BMP_pressure;BME280_temperature;BME280_humidity;BME280_pressure;Samples;Min_cycle;Max_cycle;Signal;HPM_P1;HPM_P2
2021/09/04 00:02:01;;;;;;;6.80;2.50;;;;;;;12.40;75.34;98575.20;111342;1201;60871;-23
2021/09/04 00:04:30;;;;;;;5.50;3.10;;;;;;;12.73;73.67;98573.58;111167;1202;75645;-22
2021/09/04 00:07:05;;;;;;;4.00;2.30;;;;;;;12.58;74.03;98569.27;111181;1202;74319;-23
2021/09/04 00:09:35;;;;;;;4.20;3.10;;;;;;;12.38;74.67;98568.26;111202;1200;74489;-22
2021/09/04 00:12:03;;;;;;;3.90;2.50;;;;;;;12.10;75.72;98566.95;111356;1202;60981;-22
2021/09/04 00:14:53;;;;;;;3.50;2.20;;;;;;;11.88;76.44;98568.93;111280;1201;62714;-22
2021/09/04 00:17:21;;;;;;;4.60;3.00;;;;;;;12.26;75.51;98571.38;111399;1202;73944;-22
2021/09/04 00:19:49;;;;;;;4.70;3.00;;;;;;;12.43;74.89;98573.88;111154;1195;74590;-23
2021/09/04 00:22:18;;;;;;;4.30;2.70;;;;;;;12.32;75.05;98571.24;111343;1201;73903;-21
2021/09/04 00:24:47;;;;;;;3.80;2.60;;;;;;;12.12;75.57;98565.30;111382;1202;60844;-21
2021/09/04 00:27:15;;;;;;;5.30;3.00;;;;;;;11.81;76.80;98565.58;111373;1201;61254;-23
2021/09/04 00:29:44;;;;;;;4.80;2.30;;;;;;;11.54;78.26;98566.40;111186;1202;73871;-24
2021/09/04 00:32:12;;;;;;;4.70;2.40;;;;;;;11.91;77.03;98568.20;111361;1202;77099;-22
2021/09/04 00:34:41;;;;;;;5.80;3.10;;;;;;;12.31;75.30;98572.08;111220;1202;73732;-23
2021/09/04 00:37:09;;;;;;;5.30;3.10;;;;;;;12.16;75.89;98567.39;111319;1201;61863;-23
2021/09/04 00:39:37;;;;;;;3.50;2.70;;;;;;;11.91;76.61;98570.03;111352;1201;60916;-23
2021/09/04 00:42:06;;;;;;;4.80;3.30;;;;;;;11.70;77.48;98566.78;111344;1202;75876;-23
2021/09/04 00:44:34;;;;;;;4.50;2.40;;;;;;;11.52;78.35;98568.09;111320;1201;75464;-24
2021/09/04 00:47:03;;;;;;;3.60;2.70;;;;;;;11.95;77.03;98567.66;111335;1201;72978;-24
2021/09/04 00:49:34;;;;;;;5.70;3.20;;;;;;;12.32;75.52;98569.54;111196;1204;61810;-23
2021/09/04 00:52:03;;;;;;;6.00;2.40;;;;;;;12.32;75.03;98568.80;111207;1204;61923;-22
2021/09/04 00:54:31;;;;;;;5.30;2.90;;;;;;;12.05;75.84;98576.45;111155;1202;74308;-23
2021/09/04 00:57:00;;;;;;;5.70;3.00;;;;;;;11.76;76.87;98579.14;111391;1201;75542;-23
2021/09/04 00:59:28;;;;;;;8.20;2.80;;;;;;;11.49;77.93;98580.38;111366;1201;73033;-24
2021/09/04 01:02:16;;;;;;;5.40;2.90;;;;;;;11.82;77.16;98584.46;111233;1200;61508;-23
2021/09/04 01:04:46;;;;;;;3.40;2.50;;;;;;;12.16;75.94;98583.73;111182;1199;60840;-23
2021/09/04 01:07:15;;;;;;;5.50;3.10;;;;;;;12.12;76.00;98581.19;111396;1201;75153;-23
2021/09/04 01:09:43;;;;;;;5.00;3.20;;;;;;;11.85;76.95;98583.13;111290;1202;74557;-23
2021/09/04 01:12:17;;;;;;;4.60;3.20;;;;;;;11.54;78.55;98581.98;111150;1202;74414;-23
2021/09/04 01:14:45;;;;;;;6.80;2.20;;;;;;;11.41;78.91;98583.02;111309;1201;61090;-23
2021/09/04 01:17:15;;;;;;;6.00;2.70;;;;;;;11.79;77.94;98580.39;111360;1201;60842;-23
2021/09/04 01:19:44;;;;;;;3.40;2.50;;;;;;;12.20;75.85;98582.20;111170;1202;75401;-23
2021/09/04 01:22:12;;;;;;;6.90;2.90;;;;;;;12.14;75.87;98579.09;111178;1200;73536;-24
2021/09/04 01:24:41;;;;;;;4.90;3.10;;;;;;;11.86;76.82;98583.93;111369;1202;71741;-23
2021/09/04 01:27:09;;;;;;;4.80;3.30;;;;;;;11.56;77.70;98579.77;111180;1202;61760;-23
2021/09/04 01:29:38;;;;;;;5.90;3.10;;;;;;;11.28;79.11;98587.89;111332;1202;60848;-23
2021/09/04 01:32:07;;;;;;;5.50;2.90;;;;;;;11.59;78.46;98589.52;111383;1202;74134;-23
2021/09/04 01:34:35;;;;;;;5.40;3.00;;;;;;;11.92;76.80;98592.02;111152;1200;75603;-23
2021/09/04 01:37:04;;;;;;;6.50;3.50;;;;;;;11.79;77.14;98592.88;111332;1201;72871;-23
2021/09/04 01:39:33;;;;;;;4.80;3.10;;;;;;;11.56;78.04;98598.48;111185;1203;60940;-23
2021/09/04 01:42:02;;;;;;;7.90;3.40;;;;;;;11.37;78.71;98599.73;111197;1202;60859;-23
2021/09/04 01:44:30;;;;;;;5.50;2.30;;;;;;;11.18;79.68;98600.29;111182;1201;75482;-23
2021/09/04 01:46:58;;;;;;;7.70;2.90;;;;;;;11.59;78.82;98596.83;111349;1202;74493;-23
2021/09/04 01:49:27;;;;;;;5.80;3.60;;;;;;;12.09;76.99;98596.96;111396;1201;74060;-23
2021/09/04 01:52:03;;;;;;;5.40;3.20;;;;;;;12.01;77.06;98595.54;111134;1203;60903;-24
2021/09/04 01:54:32;;;;;;;6.30;4.20;;;;;;;11.81;77.83;98597.14;111244;1201;60955;-24
2021/09/04 01:57:01;;;;;;;7.00;3.10;;;;;;;11.53;78.95;98602.66;111344;1201;75314;-23
2021/09/04 01:59:29;;;;;;;5.70;3.10;;;;;;;11.30;80.07;98602.27;111365;1201;74563;-23
2021/09/04 02:01:57;;;;;;;5.70;3.30;;;;;;;11.69;79.08;98602.37;111201;1202;71570;-23
2021/09/04 02:04:26;;;;;;;7.10;3.50;;;;;;;12.07;77.40;98600.77;111334;1196;60839;-24
2021/09/04 02:06:54;;;;;;;5.20;2.60;;;;;;;12.05;77.16;98602.70;111323;1201;61374;-24
2021/09/04 02:09:23;;;;;;;8.50;3.60;;;;;;;11.83;77.80;98599.87;111154;1200;74268;-23
2021/09/04 02:11:51;;;;;;;7.80;3.70;;;;;;;11.56;78.48;98601.31;111286;1201;76051;-24
2021/09/04 02:14:19;;;;;;;5.60;3.20;;;;;;;11.28;79.72;98602.16;111162;1202;73078;-24
2021/09/04 02:16:48;;;;;;;7.80;3.90;;;;;;;11.49;79.30;98604.67;111322;1202;60906;-24
2021/09/04 02:19:33;;;;;;;5.00;3.00;;;;;;;11.78;78.36;98602.96;111337;1201;60858;-23
2021/09/04 02:22:02;;;;;;;15.20;4.60;;;;;;;11.72;78.54;98598.98;111297;1201;75226;-23
2021/09/04 02:24:32;;;;;;;4.90;3.50;;;;;;;11.52;79.28;98606.06;111301;1201;75613;-24
2021/09/04 02:27:21;;;;;;;7.10;3.70;;;;;;;11.28;80.43;98605.80;111303;1201;75155;-24
2021/09/04 02:29:51;;;;;;;5.60;2.60;;;;;;;11.11;81.61;98608.04;111189;1202;63295;-24
2021/09/04 02:32:20;;;;;;;9.50;3.60;;;;;;;11.61;79.95;98607.60;111366;1201;61293;-23
2021/09/04 02:34:49;;;;;;;7.20;2.90;;;;;;;12.10;78.03;98610.48;111278;1201;75320;-23
2021/09/04 02:37:17;;;;;;;6.70;3.80;;;;;;;12.08;77.98;98614.10;111369;1201;74526;-23
2021/09/04 02:39:46;;;;;;;7.10;3.80;;;;;;;11.77;78.98;98612.90;111296;1201;72948;-24
2021/09/04 02:42:14;;;;;;;6.40;3.70;;;;;;;11.52;80.01;98611.07;111318;1202;60854;-22
2021/09/04 02:44:44;;;;;;;4.90;2.70;;;;;;;11.39;80.68;98609.48;111252;1202;60833;-21
2021/09/04 02:47:12;;;;;;;7.10;3.40;;;;;;;11.76;79.87;98613.04;111328;1202;74922;-21
2021/09/04 02:49:41;;;;;;;6.80;4.10;;;;;;;12.11;78.28;98613.47;111309;1202;76183;-22
2021/09/04 02:52:10;;;;;;;7.10;4.00;;;;;;;12.12;78.29;98616.15;111323;1202;73303;-23
2021/09/04 02:54:40;;;;;;;8.20;4.00;;;;;;;11.91;78.99;98614.96;111310;1201;61248;-24
2021/09/04 02:57:09;;;;;;;9.20;3.90;;;;;;;11.58;80.44;98617.67;111299;1201;60873;-21
2021/09/04 02:59:38;;;;;;;7.40;3.30;;;;;;;11.40;81.17;98623.79;111213;1200;75320;-23
2021/09/04 03:02:08;;;;;;;6.20;3.20;;;;;;;11.82;80.12;98627.05;111322;1201;76184;-25
2021/09/04 03:04:38;;;;;;;5.90;3.80;;;;;;;12.26;78.20;98623.36;111158;1201;72206;-22
2021/09/04 03:07:06;;;;;;;5.10;3.50;;;;;;;12.28;77.72;98621.61;111359;1194;60884;-21
2021/09/04 03:09:35;;;;;;;10.90;3.60;;;;;;;11.99;78.67;98628.09;111171;1201;60871;-23
2021/09/04 03:12:04;;;;;;;6.90;3.50;;;;;;;11.68;79.82;98634.92;111326;1202;75007;-24
2021/09/04 03:14:33;;;;;;;5.40;3.10;;;;;;;11.51;80.87;98635.17;111277;1201;74557;-25
2021/09/04 03:17:02;;;;;;;7.50;3.70;;;;;;;11.89;79.68;98638.08;111210;1202;73920;-23
2021/09/04 03:19:31;;;;;;;7.20;3.90;;;;;;;12.31;78.01;98643.59;111130;1201;60909;-22
2021/09/04 03:21:59;;;;;;;6.30;3.90;;;;;;;12.31;77.61;98647.95;111143;1201;60823;-22
2021/09/04 03:24:28;;;;;;;6.00;4.00;;;;;;;12.08;78.41;98645.96;111199;1195;73768;-22
2021/09/04 03:26:57;;;;;;;6.90;3.80;;;;;;;11.86;79.19;98649.15;111290;1201;75598;-22
2021/09/04 03:29:26;;;;;;;6.10;2.40;;;;;;;11.69;79.71;98649.96;111184;1202;73878;-22
2021/09/04 03:31:54;;;;;;;6.90;3.20;;;;;;;12.09;79.03;98652.09;111261;1201;60877;-22
2021/09/04 03:34:24;;;;;;;5.40;3.50;;;;;;;12.56;77.29;98654.45;111313;1201;60887;-22
2021/09/04 03:36:52;;;;;;;7.60;4.10;;;;;;;12.53;76.99;98656.34;111335;1201;73779;-22
2021/09/04 03:39:20;;;;;;;6.90;3.80;;;;;;;12.26;77.93;98661.79;111244;1202;75766;-22
2021/09/04 03:41:50;;;;;;;7.50;4.10;;;;;;;11.96;79.08;98666.64;111332;1201;72228;-22
2021/09/04 03:44:20;;;;;;;7.60;2.70;;;;;;;11.80;79.59;98670.75;111260;1201;61185;-22
2021/09/04 03:46:49;;;;;;;5.90;3.20;;;;;;;12.22;78.91;98672.10;111286;1201;60865;-22
2021/09/04 03:49:36;;;;;;;7.10;3.60;;;;;;;12.69;76.94;98683.20;111256;1202;74923;-22
2021/09/04 03:52:05;;;;;;;5.50;3.50;;;;;;;12.54;77.10;98693.63;111233;1201;75417;-23
2021/09/04 03:54:34;;;;;;;5.50;3.40;;;;;;;12.26;78.28;98696.84;111153;1202;72968;-22
2021/09/04 03:57:04;;;;;;;7.10;3.80;;;;;;;11.98;79.20;98694.49;111255;1201;60834;-22
2021/09/04 03:59:33;;;;;;;4.90;3.20;;;;;;;11.73;80.71;98696.06;111170;1201;60780;-22
2021/09/04 04:02:03;;;;;;;6.50;3.40;;;;;;;12.02;80.03;98702.33;111203;1201;73977;-22
2021/09/04 04:04:31;;;;;;;7.00;3.90;;;;;;;12.41;78.41;98702.02;111191;1201;75508;-22
2021/09/04 04:07:01;;;;;;;5.20;3.80;;;;;;;12.38;78.53;98709.39;111175;1201;73908;-22
2021/09/04 04:09:30;;;;;;;7.10;3.40;;;;;;;12.09;79.72;98705.70;111137;1201;60898;-22
2021/09/04 04:11:59;;;;;;;7.60;3.60;;;;;;;11.88;80.56;98709.33;111175;1201;60836;-22
2021/09/04 04:14:28;;;;;;;5.80;2.70;;;;;;;11.75;81.35;98711.18;111122;1201;74917;-22
2021/09/04 04:16:58;;;;;;;7.40;3.10;;;;;;;12.30;79.88;98709.27;111172;1201;74589;-21
2021/09/04 04:19:28;;;;;;;5.90;3.20;;;;;;;12.65;77.88;98713.53;111182;1201;73923;-21
2021/09/04 04:21:57;;;;;;;6.50;3.40;;;;;;;12.62;78.27;98724.05;111126;1197;60842;-21
2021/09/04 04:24:26;;;;;;;7.00;3.70;;;;;;;12.39;78.83;98726.05;111094;1201;60949;-22
2021/09/04 04:26:55;;;;;;;7.50;3.60;;;;;;;12.08;80.13;98728.52;111163;1195;75082;-23
2021/09/04 04:29:23;;;;;;;5.80;3.20;;;;;;;11.89;81.09;98729.96;111161;1201;74800;-23
2021/09/04 04:31:52;;;;;;;4.80;3.30;;;;;;;12.24;80.25;98735.83;111187;1201;74208;-24
2021/09/04 04:34:20;;;;;;;6.40;3.10;;;;;;;12.62;78.52;98730.98;111180;1201;60851;-23
2021/09/04 04:36:51;;;;;;;6.30;3.50;;;;;;;12.63;78.36;98733.33;111183;1201;61676;-23
2021/09/04 04:39:20;;;;;;;6.80;3.50;;;;;;;12.47;78.94;98735.21;111179;1201;75275;-23
2021/09/04 04:41:48;;;;;;;4.40;3.00;;;;;;;12.26;79.69;98741.02;111138;1201;75606;-22
2021/09/04 04:44:18;;;;;;;4.30;2.60;;;;;;;12.06;80.67;98738.38;111111;1201;74418;-23
2021/09/04 04:46:47;;;;;;;4.10;2.60;;;;;;;12.58;79.43;98736.24;111121;1201;62411;-23
2021/09/04 04:49:16;;;;;;;5.40;3.20;;;;;;;13.13;77.13;98734.20;111111;1201;60877;-23
2021/09/04 04:51:47;;;;;;;5.30;3.00;;;;;;;13.12;76.97;98738.30;111198;1201;75081;-23
2021/09/04 04:54:16;;;;;;;5.80;3.70;;;;;;;12.86;77.74;98753.05;111177;1201;77117;-23
2021/09/04 04:56:45;;;;;;;4.20;3.00;;;;;;;12.53;79.08;98752.59;111157;1201;73827;-23
2021/09/04 04:59:13;;;;;;;3.90;2.40;;;;;;;12.39;79.90;98754.23;111120;1201;62551;-25
2021/09/04 05:01:41;;;;;;;3.80;2.60;;;;;;;12.91;78.29;98755.75;111188;1201;61733;-23
2021/09/04 05:04:10;;;;;;;4.40;3.00;;;;;;;13.36;76.49;98756.41;111204;1201;74132;-23
2021/09/04 05:06:40;;;;;;;5.20;3.20;;;;;;;13.25;76.34;98757.96;111142;1201;75630;-22
2021/09/04 05:09:09;;;;;;;6.80;3.10;;;;;;;13.01;77.20;98763.73;111178;1202;73397;-23
2021/09/04 05:11:38;;;;;;;4.60;2.70;;;;;;;12.71;78.68;98764.31;111166;1195;60894;-23
2021/09/04 05:14:06;;;;;;;4.40;2.40;;;;;;;12.66;78.58;98768.48;111147;1201;60895;-23
2021/09/04 05:16:35;;;;;;;6.30;2.40;;;;;;;13.06;78.26;98773.86;111170;1201;75456;-23
2021/09/04 05:19:05;;;;;;;3.80;2.50;;;;;;;13.55;76.08;98778.10;111164;1201;74592;-22
2021/09/04 05:21:33;;;;;;;8.80;3.20;;;;;;;13.44;75.88;98774.59;111162;1201;73055;-22
2021/09/04 05:24:02;;;;;;;8.60;2.70;;;;;;;13.21;76.65;98779.13;111156;1201;61122;-22
2021/09/04 05:26:31;;;;;;;3.90;2.80;;;;;;;13.03;77.27;98776.42;111173;1201;61947;-22
2021/09/04 05:29:00;;;;;;;2.40;1.60;;;;;;;12.96;78.11;98775.05;111213;1201;73537;-22
2021/09/04 05:31:29;;;;;;;3.10;1.90;;;;;;;13.36;77.22;98778.04;111108;1201;75587;-22
2021/09/04 05:33:59;;;;;;;3.10;2.10;;;;;;;13.89;74.67;98779.63;111186;1201;73825;-22
2021/09/04 05:36:27;;;;;;;3.70;2.30;;;;;;;13.96;74.70;98787.20;111162;1202;61725;-22
2021/09/04 05:40:32;;;;;;;3.70;2.20;;;;;;;13.54;75.51;98789.34;109945;1217;599630;-22
2021/09/04 05:43:01;;;;;;;4.80;2.40;;;;;;;13.45;76.13;98793.02;110941;1206;61515;-22
2021/09/04 05:45:34;;;;;;;2.70;1.80;;;;;;;13.38;75.77;98797.54;110951;1206;61457;-23
2021/09/04 05:48:05;;;;;;;6.70;2.10;;;;;;;13.92;74.83;98795.96;110960;1206;73965;-24
2021/09/04 05:50:33;;;;;;;5.40;1.80;;;;;;;14.36;72.94;98791.69;110713;1207;75604;-21
2021/09/04 05:53:03;;;;;;;3.40;2.00;;;;;;;14.36;72.31;98793.30;110940;1206;72744;-21
2021/09/04 05:55:32;;;;;;;3.10;2.30;;;;;;;14.20;72.81;98796.11;110905;1206;61010;-23
2021/09/04 05:58:01;;;;;;;6.30;2.30;;;;;;;13.92;72.54;98796.17;110760;1200;60964;-23
2021/09/04 06:00:30;;;;;;;2.90;1.60;;;;;;;13.83;73.16;98798.23;111182;1202;71990;-23
2021/09/04 06:02:59;;;;;;;3.40;1.60;;;;;;;13.73;73.77;98801.82;111219;1196;73919;-23
2021/09/04 06:05:29;;;;;;;5.20;1.40;;;;;;;13.69;74.21;98807.09;111095;1202;73747;-23
2021/09/04 06:07:58;;;;;;;3.20;1.80;;;;;;;14.39;72.96;98808.33;111142;1203;60851;-23
2021/09/04 06:10:26;;;;;;;3.20;2.10;;;;;;;14.96;70.25;98812.19;111168;1202;60904;-23
2021/09/04 06:12:55;;;;;;;3.90;1.70;;;;;;;14.89;69.71;98814.02;111142;1202;73356;-23
2021/09/04 06:15:25;;;;;;;4.80;2.20;;;;;;;14.57;70.40;98813.06;111154;1202;74156;-24
2021/09/04 06:18:13;;;;;;;1.90;1.20;;;;;;;14.62;69.42;98811.10;111173;1202;75403;-23
2021/09/04 06:20:42;;;;;;;2.70;1.70;;;;;;;14.02;70.36;98814.46;111169;1202;60874;-23
2021/09/04 06:23:10;;;;;;;4.00;2.00;;;;;;;13.50;72.41;98812.58;111102;1199;61541;-23
2021/09/04 06:25:38;;;;;;;3.90;1.80;;;;;;;13.08;73.85;98814.48;111133;1202;74080;-23
2021/09/04 06:28:06;;;;;;;4.20;1.20;;;;;;;13.57;72.48;98818.01;111194;1202;75831;-23
2021/09/04 06:30:35;;;;;;;2.40;1.40;;;;;;;14.33;70.22;98819.81;111141;1203;72646;-23
2021/09/04 06:33:04;;;;;;;2.50;1.50;;;;;;;14.95;67.92;98825.64;111171;1202;60793;-23
2021/09/04 06:35:34;;;;;;;2.30;1.10;;;;;;;14.96;66.84;98828.70;111135;1202;60958;-23
2021/09/04 06:38:03;;;;;;;6.50;1.30;;;;;;;14.98;66.85;98830.90;111122;1202;72921;-24
2021/09/04 06:40:31;;;;;;;1.90;1.20;;;;;;;14.95;67.11;98836.80;111160;1202;74631;-23
2021/09/04 06:42:59;;;;;;;1.60;1.30;;;;;;;14.78;66.65;98835.56;111079;1204;72998;-23
2021/09/04 06:45:27;;;;;;;2.90;1.50;;;;;;;14.02;68.50;98841.37;111152;1202;60863;-23
2021/09/04 06:47:57;;;;;;;1.70;1.20;;;;;;;13.86;70.23;98838.72;111149;1195;60845;-23
2021/09/04 06:50:25;;;;;;;2.50;1.40;;;;;;;14.02;69.57;98839.60;111213;1202;73114;-23
2021/09/04 06:53:06;;;;;;;7.20;1.10;;;;;;;14.50;69.74;98839.73;111103;1202;75507;-23
2021/09/04 06:55:36;;;;;;;1.70;1.10;;;;;;;15.25;65.76;98841.06;111156;1196;74006;-23
2021/09/04 06:58:04;;;;;;;2.30;1.30;;;;;;;15.75;63.19;98845.81;111188;1202;60841;-23
2021/09/04 07:00:33;;;;;;;4.40;1.50;;;;;;;15.03;64.82;98846.70;111125;1202;60842;-23
2021/09/04 07:03:02;;;;;;;1.90;1.20;;;;;;;15.08;64.77;98850.69;111109;1202;74336;-23
2021/09/04 07:05:31;;;;;;;1.60;0.80;;;;;;;15.04;63.99;98851.06;111197;1202;75392;-23
2021/09/04 07:08:00;;;;;;;3.10;1.30;;;;;;;14.97;64.87;98856.33;111116;1202;73239;-23
2021/09/04 07:10:29;;;;;;;2.30;1.10;;;;;;;15.10;64.92;98856.77;111168;1202;60884;-23
2021/09/04 07:12:57;;;;;;;9.10;1.10;;;;;;;14.75;64.48;98862.36;111160;1202;60798;-23
2021/09/04 07:15:25;;;;;;;2.90;1.50;;;;;;;14.39;64.65;98860.76;111102;1203;74466;-23
2021/09/04 07:17:54;;;;;;;1.30;1.20;;;;;;;13.84;66.43;98864.81;111140;1202;74728;-23
2021/09/04 07:20:22;;;;;;;2.70;1.10;;;;;;;14.27;65.99;98867.32;111185;1203;73069;-24
2021/09/04 07:22:51;;;;;;;1.60;1.10;;;;;;;14.73;64.85;98864.73;111141;1202;60817;-23
2021/09/04 07:25:19;;;;;;;1.70;1.20;;;;;;;14.75;65.17;98870.60;111009;1196;60827;-23
2021/09/04 07:27:50;;;;;;;2.30;1.30;;;;;;;14.94;62.86;98872.02;111139;1202;74323;-23
2021/09/04 07:30:18;;;;;;;6.90;1.30;;;;;;;14.67;62.29;98873.52;111149;1202;75629;-23
2021/09/04 07:32:48;;;;;;;5.60;1.20;;;;;;;14.61;62.63;98875.52;111102;1202;73798;-23
2021/09/04 07:35:16;;;;;;;1.20;0.90;;;;;;;14.91;62.91;98874.65;111126;1202;61681;-24
2021/09/04 07:37:44;;;;;;;2.00;0.80;;;;;;;14.99;62.44;98877.99;111176;1202;60967;-24
2021/09/04 07:40:13;;;;;;;3.00;1.20;;;;;;;14.22;61.75;98877.67;111189;1202;74147;-24
2021/09/04 07:42:45;;;;;;;1.30;0.90;;;;;;;14.31;61.94;98875.67;111171;1202;75397;-23
2021/09/04 07:45:13;;;;;;;0.90;0.80;;;;;;;14.73;62.34;98881.83;111108;1202;74085;-24
2021/09/04 07:47:41;;;;;;;4.40;1.10;;;;;;;15.18;61.21;98873.14;111187;1202;61573;-24
2021/09/04 07:50:09;;;;;;;1.50;0.90;;;;;;;15.55;60.59;98873.42;111158;1202;60885;-23
2021/09/04 07:52:38;;;;;;;2.20;1.40;;;;;;;15.77;60.37;98876.08;111162;1202;73391;-21
2021/09/04 07:55:07;;;;;;;2.90;1.30;;;;;;;15.68;59.05;98877.52;111185;1202;73993;-23
2021/09/04 07:57:35;;;;;;;3.10;1.30;;;;;;;15.47;60.01;98878.27;111114;1204;74138;-23
2021/09/04 08:00:04;;;;;;;4.50;1.40;;;;;;;15.54;59.61;98871.32;111098;1202;61430;-23
2021/09/04 08:02:39;;;;;;;2.00;1.50;;;;;;;15.80;58.58;98876.84;111053;1202;60866;-23
2021/09/04 08:05:09;;;;;;;2.70;1.20;;;;;;;15.91;59.51;98873.21;111181;1202;74390;-21
2021/09/04 08:07:37;;;;;;;2.40;0.80;;;;;;;16.26;58.69;98871.66;111100;1203;75540;-21
2021/09/04 08:10:07;;;;;;;3.10;1.30;;;;;;;16.46;56.71;98865.23;111082;1202;72601;-21
2021/09/04 08:12:36;;;;;;;1.90;1.10;;;;;;;16.13;54.69;98861.96;111022;1202;61879;-23
2021/09/04 08:15:05;;;;;;;1.70;0.90;;;;;;;16.25;55.15;98870.64;111128;1202;61607;-22
2021/09/04 08:17:33;;;;;;;3.80;1.60;;;;;;;16.40;54.13;98869.61;111098;1202;73477;-22
2021/09/04 08:20:02;;;;;;;1.50;0.90;;;;;;;16.48;53.37;98869.61;111191;1202;74542;-22
2021/09/04 08:22:31;;;;;;;2.10;1.40;;;;;;;16.38;54.39;98864.31;111167;1202;74079;-22
2021/09/04 08:24:59;;;;;;;2.90;1.50;;;;;;;16.47;54.30;98866.89;111086;1202;61440;-22
2021/09/04 08:27:29;;;;;;;1.30;1.00;;;;;;;16.48;55.95;98865.91;111089;1204;60891;-22
2021/09/04 08:29:57;;;;;;;1.80;1.20;;;;;;;16.29;57.09;98867.55;111163;1202;74358;-22
2021/09/04 08:32:26;;;;;;;2.90;1.30;;;;;;;15.72;57.77;98867.27;110994;1204;74898;-22
2021/09/04 08:34:54;;;;;;;2.20;1.20;;;;;;;15.11;59.45;98865.38;111151;1202;73282;-22
2021/09/04 08:37:23;;;;;;;3.10;1.50;;;;;;;15.21;59.50;98863.67;111171;1202;61777;-22
2021/09/04 08:39:51;;;;;;;3.40;1.40;;;;;;;15.51;59.06;98866.92;110957;1205;60862;-22
2021/09/04 08:42:19;;;;;;;2.50;1.20;;;;;;;15.54;58.65;98867.45;111127;1203;73255;-22
2021/09/04 08:44:48;;;;;;;1.80;0.90;;;;;;;15.66;57.95;98866.23;111068;1202;74258;-22
2021/09/04 08:47:20;;;;;;;1.40;1.10;;;;;;;15.90;58.12;98870.70;111048;1204;72244;-22
2021/09/04 08:49:48;;;;;;;7.10;1.60;;;;;;;16.07;57.20;98872.23;111065;1202;60970;-23
2021/09/04 08:52:18;;;;;;;5.10;1.20;;;;;;;16.23;55.78;98874.52;111164;1195;60902;-24
2021/09/04 08:54:47;;;;;;;1.80;1.10;;;;;;;16.40;55.88;98873.58;111131;1202;73118;-23
2021/09/04 08:57:15;;;;;;;1.00;0.60;;;;;;;16.40;54.58;98877.77;111205;1202;75652;-23
2021/09/04 08:59:50;;;;;;;3.00;1.00;;;;;;;16.38;54.50;98876.27;111066;1202;73945;-23
2021/09/04 09:02:24;;;;;;;1.70;0.90;;;;;;;16.00;54.34;98875.39;111014;1202;61765;-24
2021/09/04 09:05:01;;;;;;;1.80;1.00;;;;;;;15.81;54.95;98871.24;111085;1204;60867;-24
2021/09/04 09:07:44;;;;;;;1.80;1.00;;;;;;;15.65;56.45;98876.77;111011;1202;74666;-23
2021/09/04 09:10:37;;;;;;;6.50;1.90;;;;;;;15.60;56.63;98877.70;110948;1205;74759;-24
2021/09/04 09:13:06;;;;;;;1.20;0.90;;;;;;;15.48;56.73;98875.57;111029;1203;72694;-22
2021/09/04 09:15:42;;;;;;;6.90;1.10;;;;;;;15.48;57.94;98882.27;111022;1202;60914;-21
2021/09/04 09:18:28;;;;;;;14.30;1.30;;;;;;;15.84;57.48;98885.15;111114;1202;60874;-21
2021/09/04 09:21:03;;;;;;;3.70;0.80;;;;;;;16.13;55.83;98877.02;111163;1202;74072;-21
2021/09/04 09:23:32;;;;;;;1.60;1.10;;;;;;;16.29;55.21;98876.31;110998;1202;75694;-21
2021/09/04 09:26:10;;;;;;;1.80;1.00;;;;;;;16.09;54.30;98875.62;111181;1202;73959;-21
2021/09/04 09:28:39;;;;;;;1.10;0.90;;;;;;;15.70;55.15;98878.36;111049;1196;60829;-21
2021/09/04 09:31:07;;;;;;;2.20;1.20;;;;;;;15.57;56.43;98882.31;111095;1202;61445;-21
2021/09/04 09:33:35;;;;;;;2.90;0.80;;;;;;;15.13;56.60;98885.09;111166;1202;74736;-21
2021/09/04 09:36:04;;;;;;;2.00;0.80;;;;;;;14.93;58.17;98883.67;111210;1202;75724;-21
2021/09/04 09:38:33;;;;;;;1.30;0.90;;;;;;;14.92;58.88;98887.08;111157;1202;73293;-24
2021/09/04 09:41:05;;;;;;;1.40;0.90;;;;;;;14.86;59.02;98896.29;111140;1202;60799;-22
2021/09/04 09:43:35;;;;;;;2.50;1.10;;;;;;;14.96;59.36;98896.46;111153;1202;60839;-23
2021/09/04 09:46:05;;;;;;;2.60;1.00;;;;;;;15.34;56.91;98896.08;111172;1202;73345;-23
2021/09/04 09:48:36;;;;;;;1.60;1.10;;;;;;;15.68;55.79;98899.73;111075;1202;75391;-23
2021/09/04 09:51:05;;;;;;;2.70;0.90;;;;;;;16.47;53.43;98894.58;110956;1202;74113;-23
2021/09/04 09:53:34;;;;;;;2.00;1.00;;;;;;;17.15;53.00;98893.70;111060;1202;61496;-23
2021/09/04 09:56:03;;;;;;;2.60;0.90;;;;;;;17.16;50.98;98894.44;111195;1202;62185;-23
2021/09/04 09:58:31;;;;;;;1.70;0.90;;;;;;;16.87;52.13;98898.88;111172;1202;75178;-23
2021/09/04 10:01:00;;;;;;;4.40;0.90;;;;;;;16.55;52.26;98900.23;111032;1202;77196;-23
2021/09/04 10:03:29;;;;;;;2.30;0.80;;;;;;;16.48;52.91;98898.66;111068;1202;73090;-23
2021/09/04 10:05:59;;;;;;;1.60;0.70;;;;;;;16.39;52.20;98897.65;111186;1202;61587;-22
2021/09/04 10:08:28;;;;;;;2.70;1.00;;;;;;;16.22;54.42;98898.36;111053;1202;61647;-23
2021/09/04 10:11:17;;;;;;;1.60;1.00;;;;;;;16.45;55.11;98902.68;111057;1204;75403;-23
2021/09/04 10:14:05;;;;;;;1.50;1.00;;;;;;;17.04;53.04;98902.73;111012;1202;76829;-23
2021/09/04 10:16:38;;;;;;;1.50;1.00;;;;;;;17.51;50.78;98897.89;111124;1202;72274;-23
2021/09/04 10:19:07;;;;;;;3.00;1.30;;;;;;;17.96;50.51;98896.55;111153;1201;60879;-23
2021/09/04 10:21:37;;;;;;;3.40;1.40;;;;;;;18.21;49.33;98897.70;111180;1202;60827;-23
2021/09/04 10:24:07;;;;;;;4.10;1.40;;;;;;;18.15;47.44;98903.11;111164;1202;74311;-23
2021/09/04 10:26:37;;;;;;;3.40;1.10;;;;;;;17.53;47.40;98902.98;111200;1195;75803;-23
2021/09/04 10:29:13;;;;;;;2.40;1.20;;;;;;;17.02;48.45;98910.56;111153;1202;72928;-23
2021/09/04 10:31:57;;;;;;;1.40;0.80;;;;;;;16.91;49.25;98905.55;111157;1202;60938;-23
2021/09/04 10:34:39;;;;;;;2.20;0.90;;;;;;;17.49;49.52;98897.56;111180;1202;61513;-23
2021/09/04 10:37:18;;;;;;;1.50;0.80;;;;;;;18.16;47.12;98898.51;111135;1202;75178;-23
2021/09/04 10:39:47;;;;;;;2.50;0.90;;;;;;;18.63;44.57;98890.41;111187;1200;73427;-23
2021/09/04 10:42:18;;;;;;;1.40;0.80;;;;;;;19.24;43.77;98890.84;111193;1202;73743;-23
2021/09/04 10:44:47;;;;;;;1.60;0.80;;;;;;;19.54;41.24;98881.42;111126;1200;60896;-23
2021/09/04 10:47:16;;;;;;;1.60;0.90;;;;;;;19.43;43.28;98882.38;111170;1202;60826;-23
2021/09/04 10:49:47;;;;;;;2.20;1.00;;;;;;;19.04;42.95;98892.50;111332;1201;75113;-23
2021/09/04 10:52:15;;;;;;;2.80;0.80;;;;;;;18.40;43.14;98894.44;111206;1201;74752;-23
2021/09/04 10:54:54;;;;;;;2.60;0.90;;;;;;;17.66;43.99;98894.45;111166;1200;72625;-23
2021/09/04 10:57:22;;;;;;;3.40;1.00;;;;;;;17.20;46.52;98898.71;111095;1200;61449;-23
2021/09/04 10:59:59;;;;;;;4.70;0.90;;;;;;;16.99;45.29;98901.20;111352;1201;60877;-23
2021/09/04 11:02:46;;;;;;;1.50;0.70;;;;;;;17.26;45.02;98902.35;111165;1203;73902;-23
2021/09/04 11:05:23;;;;;;;1.80;0.80;;;;;;;17.32;45.82;98905.98;111182;1202;74417;-23
2021/09/04 11:08:05;;;;;;;2.60;1.00;;;;;;;16.90;46.00;98910.78;111325;1202;73978;-23
2021/09/04 11:10:43;;;;;;;1.40;0.80;;;;;;;16.75;46.61;98917.15;111045;1200;62272;-23
2021/09/04 11:13:18;;;;;;;1.80;1.00;;;;;;;16.56;45.78;98920.80;111136;1202;60962;-23
2021/09/04 11:15:47;;;;;;;1.20;0.70;;;;;;;16.36;46.31;98924.36;111364;1202;75208;-24
2021/09/04 11:18:19;;;;;;;2.10;1.20;;;;;;;16.23;46.99;98928.60;111370;1202;74524;-23
2021/09/04 11:20:49;;;;;;;1.40;0.80;;;;;;;16.12;47.74;98931.40;111326;1202;73283;-23
2021/09/04 11:23:27;;;;;;;1.40;0.90;;;;;;;16.33;47.55;98925.02;111169;1203;60836;-23
2021/09/04 11:26:02;;;;;;;6.40;1.00;;;;;;;16.81;45.96;98924.22;111171;1203;60868;-23
2021/09/04 11:28:31;;;;;;;1.80;1.00;;;;;;;17.35;46.40;98916.04;111209;1202;74198;-23
2021/09/04 11:31:00;;;;;;;1.40;0.70;;;;;;;17.62;45.19;98918.48;111216;1204;75529;-23
2021/09/04 11:33:29;;;;;;;1.40;1.10;;;;;;;17.23;43.42;98921.96;111341;1201;74219;-23
2021/09/04 11:36:01;;;;;;;1.50;0.90;;;;;;;16.80;44.19;98921.89;111267;1202;60868;-23
2021/09/04 11:38:30;;;;;;;1.80;1.20;;;;;;;16.68;45.41;98921.23;111218;1202;60868;-23
2021/09/04 11:40:59;;;;;;;2.30;1.20;;;;;;;16.54;47.09;98920.50;111325;1201;74971;-23